P.t. Monto — VMBF — position and weather

sailwx.info

Track history (hours):
 
Tides and Currents Weather Stations Pressure Air Temp Water Temp Dewpoint Dewpoint Depression Visibility Wind Speed Wind Dir Waves Ship Positions

P.t. Monto

Last reported at 2017-Sep-02 21:09 UTC. Time now 2017-Oct-22 19:33 UTC.
Position S 38°51' E 148°00'.
Warning: this ship's position is 49 days out of date.

Length 34 m; draft 3.4 m.

Type: Tug. MMSI: 503612000.

Date/timePositionNaut miles runAvg speedWind from/ knotsBaromVisibWave heightAir tempDewpointWater temp
2017-Sep-02 21:09S 38°51' E 148°00'0 3.0
2017-Sep-02 21:01S 38°51' E 147°60'1 3.0
2017-Sep-02 20:30S 38°52' E 147°58'1 1.9
2017-Sep-02 20:01S 38°52' E 147°57'2 3.0
2017-Sep-02 19:30S 38°53' E 147°55'1 2.3
2017-Sep-02 19:01S 38°53' E 147°53'2 3.5
2017-Sep-02 18:31S 38°54' E 147°51'2 3.6
2017-Sep-02 18:01S 38°55' E 147°49'2 3.7
2017-Sep-02 17:30S 38°55' E 147°47'2 4.0
2017-Sep-02 17:01S 38°56' E 147°45'2 4.2
2017-Sep-02 16:31S 38°57' E 147°42'2 4.6
2017-Sep-02 16:00S 38°57' E 147°39'2 5.0
2017-Sep-02 15:31S 38°58' E 147°36'3 5.2
2017-Sep-02 15:01S 38°59' E 147°33'3 5.4
2017-Sep-02 14:30S 39°00' E 147°30'3 5.4
2017-Sep-02 14:01S 39°01' E 147°27'39 5.1
2017-Sep-02 06:24S 39°16' E 146°40'2 5.0
2017-Sep-02 06:00S 39°16' E 146°38'3 5.1
2017-Sep-02 05:31S 39°17' E 146°35'3 5.2
2017-Sep-02 05:01S 39°17' E 146°31'3 5.2
2017-Sep-02 04:30S 39°17' E 146°28'3 5.2
2017-Sep-02 04:01S 39°17' E 146°25'3 5.2
2017-Sep-02 03:30S 39°17' E 146°21'3 5.3
2017-Sep-02 03:01S 39°17' E 146°18'3 5.3
2017-Sep-02 02:30S 39°16' E 146°14'2 4.3
2017-Sep-02 02:01S 39°15' E 146°12'2 4.5
2017-Sep-02 01:31S 39°14' E 146°10'3 5.3
2017-Sep-02 01:01S 39°13' E 146°07'3 5.3
2017-Sep-02 00:31S 39°11' E 146°04'3 5.3
2017-Sep-02 00:00S 39°10' E 146°01'3 5.4
2017-Sep-01 23:30S 39°08' E 145°58'3 5.3
2017-Sep-01 23:00S 39°07' E 145°55'3 5.3
2017-Sep-01 22:30S 39°05' E 145°53'3 5.2
2017-Sep-01 22:00S 39°04' E 145°50'3 5.2
2017-Sep-01 21:30S 39°02' E 145°47'3 5.2
2017-Sep-01 21:00S 39°01' E 145°44'4 5.3
2017-Sep-01 20:17S 38°59' E 145°40'  
Track history (hours):
 
Tides and Currents Weather Stations Pressure Air Temp Water Temp Dewpoint Dewpoint Depression Visibility Wind Speed Wind Dir Waves Ship Positions

P.t. Monto

Last reported at 2017-Sep-02 21:09 UTC. Time now 2017-Oct-22 19:33 UTC.
Position S 38°51' E 148°00'.
Warning: this ship's position is 49 days out of date.

Length 34 m; draft 3.4 m.

Type: Tug. MMSI: 503612000.

Date/timePositionNaut miles runAvg speedWind from/ knotsBaromVisibWave heightAir tempDewpointWater temp
2017-Sep-02 21:09S 38°51' E 148°00'0 3.0
2017-Sep-02 21:01S 38°51' E 147°60'1 3.0
2017-Sep-02 20:30S 38°52' E 147°58'1 1.9
2017-Sep-02 20:01S 38°52' E 147°57'2 3.0
2017-Sep-02 19:30S 38°53' E 147°55'1 2.3
2017-Sep-02 19:01S 38°53' E 147°53'2 3.5
2017-Sep-02 18:31S 38°54' E 147°51'2 3.6
2017-Sep-02 18:01S 38°55' E 147°49'2 3.7
2017-Sep-02 17:30S 38°55' E 147°47'2 4.0
2017-Sep-02 17:01S 38°56' E 147°45'2 4.2
2017-Sep-02 16:31S 38°57' E 147°42'2 4.6
2017-Sep-02 16:00S 38°57' E 147°39'2 5.0
2017-Sep-02 15:31S 38°58' E 147°36'3 5.2
2017-Sep-02 15:01S 38°59' E 147°33'3 5.4
2017-Sep-02 14:30S 39°00' E 147°30'3 5.4
2017-Sep-02 14:01S 39°01' E 147°27'39 5.1
2017-Sep-02 06:24S 39°16' E 146°40'2 5.0
2017-Sep-02 06:00S 39°16' E 146°38'3 5.1
2017-Sep-02 05:31S 39°17' E 146°35'3 5.2
2017-Sep-02 05:01S 39°17' E 146°31'3 5.2
2017-Sep-02 04:30S 39°17' E 146°28'3 5.2
2017-Sep-02 04:01S 39°17' E 146°25'3 5.2
2017-Sep-02 03:30S 39°17' E 146°21'3 5.3
2017-Sep-02 03:01S 39°17' E 146°18'3 5.3
2017-Sep-02 02:30S 39°16' E 146°14'2 4.3
2017-Sep-02 02:01S 39°15' E 146°12'2 4.5
2017-Sep-02 01:31S 39°14' E 146°10'3 5.3
2017-Sep-02 01:01S 39°13' E 146°07'3 5.3
2017-Sep-02 00:31S 39°11' E 146°04'3 5.3
2017-Sep-02 00:00S 39°10' E 146°01'3 5.4
2017-Sep-01 23:30S 39°08' E 145°58'3 5.3
2017-Sep-01 23:00S 39°07' E 145°55'3 5.3
2017-Sep-01 22:30S 39°05' E 145°53'3 5.2
2017-Sep-01 22:00S 39°04' E 145°50'3 5.2
2017-Sep-01 21:30S 39°02' E 145°47'3 5.2
2017-Sep-01 21:00S 39°01' E 145°44'4 5.3
2017-Sep-01 20:17S 38°59' E 145°40'  

Dump ship's entire track history